Enter the Airport ICAO Code

Search by Airport or City

Current Weather

SCQP | La Araucanía Airport

Temuco, Chile

Last Update 30 Minutes Ago

Clear Sky

Temperature of 18 ºC

Light to Moderate Winds from SouthEast

Temperature

18 ºC

Dew Point Temperature

05 ºC

Relative Humidity

42.45 %

Wind Direction

SouthEast (140º, Ranging from 110º to 210º)

Wind Velocity

9 km/h (05 kt)

Gusts

None

Visibility

No Significant Reductions

Sea Level Pressure

1013 hPa (Hectopascals)

Layers of Clouds

None

METAR SCQP 211400Z 14005KT 110V210 CAVOK 18/05 Q1013

Weather Forecast

SCQP | La Araucanía Airport

Temuco, Chile

Forecast valid for the next 22 Hours

From now on it is expected:

Clear Sky

Light to Moderate Winds from South

In 2 to 4 hours it is expected the begining of:

Light to Moderate Winds from North

In 12 to 13 hours it is expected the begining of:

Light Winds from Variable Directions

In 18 to 20 hours it is expected the begining of:

Mostly Cloudy Sky

Light to Moderate Winds from North

Maximum Temperature

22 ºC in 5 Hours

Minimum Temperature

04 ºC in 20 Hours

TAF SCQP 211014Z 2112/2212 17008KT CAVOK TX22/2119Z TN04/2210Z BECMG 2116/2118 35006KT BECMG 2202/2203 VRB02KT BECMG 2208/2210 36007KT BKN015